createdAt,value
2022-11-26T00:02:18.177Z,24.07
2022-11-26T00:04:45.320Z,23.73
2022-11-26T00:07:14.138Z,23.67
2022-11-26T00:09:41.734Z,23.80
2022-11-26T00:12:23.782Z,25.84
2022-11-26T00:14:52.014Z,25.25
2022-11-26T00:17:20.019Z,26.72
2022-11-26T00:19:47.533Z,25.21
2022-11-26T00:22:32.201Z,25.00
2022-11-26T00:24:58.984Z,26.37
2022-11-26T00:27:27.680Z,25.24
2022-11-26T00:29:55.241Z,26.18
2022-11-26T00:32:26.073Z,24.44
2022-11-26T00:34:53.994Z,26.93
2022-11-26T00:37:20.689Z,24.59
2022-11-26T00:39:48.393Z,28.84
2022-11-26T00:42:15.199Z,27.59
2022-11-26T00:44:41.891Z,28.94
2022-11-26T00:47:10.299Z,24.74
2022-11-26T00:49:38.255Z,27.43
2022-11-26T00:52:23.524Z,25.97
2022-11-26T00:54:50.373Z,25.79
2022-11-26T00:57:17.122Z,27.21
2022-11-26T00:59:44.159Z,24.08
2022-11-26T01:02:11.097Z,24.56
2022-11-26T01:04:38.799Z,25.31
2022-11-26T01:07:05.801Z,25.85
2022-11-26T01:09:33.181Z,25.64
2022-11-26T01:12:00.000Z,24.76
2022-11-26T01:14:26.770Z,24.37
2022-11-26T01:16:56.514Z,24.13
2022-11-26T01:19:24.046Z,25.31
2022-11-26T01:21:51.015Z,23.85
2022-11-26T01:24:17.776Z,22.87
2022-11-26T01:26:45.172Z,22.41
2022-11-26T01:29:16.850Z,23.47
2022-11-26T01:31:44.192Z,24.07
2022-11-26T01:34:11.113Z,26.47
2022-11-26T01:36:40.556Z,24.25
2022-11-26T01:39:16.111Z,23.67
2022-11-26T01:41:56.922Z,23.94
2022-11-26T01:44:29.692Z,24.14
2022-11-26T01:46:58.274Z,22.67
2022-11-26T01:49:43.279Z,22.60
2022-11-26T01:52:24.924Z,24.69
2022-11-26T01:54:53.690Z,25.02
2022-11-26T01:57:30.121Z,24.64
2022-11-26T02:00:04.203Z,24.22
2022-11-26T02:02:40.571Z,26.57
2022-11-26T02:05:11.127Z,24.82
2022-11-26T02:07:39.060Z,25.34
2022-11-26T02:10:06.541Z,23.57
2022-11-26T02:12:33.709Z,25.86
2022-11-26T02:15:00.452Z,24.96
2022-11-26T02:17:55.705Z,23.89
2022-11-26T02:20:49.585Z,22.26
2022-11-26T02:23:39.030Z,21.32
2022-11-26T02:26:17.656Z,22.15
2022-11-26T02:28:59.835Z,21.82
2022-11-26T02:31:48.877Z,23.63
2022-11-26T02:34:26.580Z,24.69
2022-11-26T02:37:13.062Z,23.57
2022-11-26T02:39:40.189Z,25.03
2022-11-26T02:42:26.987Z,23.62
2022-11-26T02:44:59.694Z,22.58
2022-11-26T02:47:28.768Z,22.63
2022-11-26T02:49:58.936Z,23.00
2022-11-26T02:52:27.617Z,22.29
2022-11-26T02:54:56.741Z,22.42
2022-11-26T02:57:28.921Z,22.55
2022-11-26T02:59:56.369Z,21.98
2022-11-26T03:02:38.850Z,25.95
2022-11-26T03:05:09.491Z,23.79
2022-11-26T03:07:37.495Z,23.28
2022-11-26T03:10:05.674Z,22.40
2022-11-26T03:12:32.404Z,23.69
2022-11-26T03:14:59.236Z,26.15
2022-11-26T03:17:25.983Z,23.34
2022-11-26T03:19:53.389Z,24.01
2022-11-26T03:22:20.112Z,22.26
2022-11-26T03:24:46.863Z,23.31
2022-11-26T03:27:13.883Z,24.06
2022-11-26T03:29:40.764Z,22.44
2022-11-26T03:32:07.605Z,22.41
2022-11-26T03:34:35.035Z,23.74
2022-11-26T03:37:01.798Z,25.11
2022-11-26T03:39:28.465Z,22.50
2022-11-26T03:41:55.656Z,23.03
2022-11-26T03:44:22.483Z,24.20
2022-11-26T03:46:49.206Z,23.20
2022-11-26T03:49:15.938Z,23.54
2022-11-26T03:51:42.908Z,22.95
2022-11-26T03:54:10.253Z,22.29
2022-11-26T03:56:37.141Z,22.00
2022-11-26T03:59:04.243Z,26.02
2022-11-26T04:01:31.069Z,24.45
2022-11-26T04:03:57.973Z,24.21
2022-11-26T04:06:25.288Z,25.52
2022-11-26T04:08:51.980Z,22.93
2022-11-26T04:11:18.742Z,24.68
2022-11-26T04:13:45.760Z,25.80
2022-11-26T04:16:12.683Z,27.16
2022-11-26T04:18:40.121Z,23.10
2022-11-26T04:21:07.982Z,24.42
2022-11-26T04:23:36.529Z,25.81
2022-11-26T04:26:03.643Z,27.21
2022-11-26T04:28:30.669Z,23.88
2022-11-26T04:30:57.763Z,24.23
2022-11-26T04:33:27.334Z,26.76
2022-11-26T04:35:54.184Z,27.87
2022-11-26T04:38:25.554Z,24.81
2022-11-26T04:40:53.071Z,27.31
2022-11-26T04:43:21.639Z,24.31
2022-11-26T04:45:48.763Z,27.48
2022-11-26T04:48:15.773Z,25.89
2022-11-26T04:50:42.768Z,25.57
2022-11-26T04:53:10.316Z,25.22
2022-11-26T04:55:37.428Z,26.42
2022-11-26T04:58:04.141Z,25.72
2022-11-26T05:00:31.213Z,25.42
2022-11-26T05:02:58.138Z,24.04
2022-11-26T05:05:25.578Z,24.53
2022-11-26T05:07:52.351Z,25.89
2022-11-26T05:10:19.132Z,24.14
2022-11-26T05:12:46.169Z,22.98
2022-11-26T05:15:13.048Z,24.30
2022-11-26T05:17:40.499Z,23.82
2022-11-26T05:20:08.086Z,24.97
2022-11-26T05:22:34.925Z,25.95
2022-11-26T05:25:01.667Z,23.85
2022-11-26T05:27:28.336Z,29.04
2022-11-26T05:29:56.048Z,25.50
2022-11-26T05:32:22.712Z,27.21
2022-11-26T05:34:49.450Z,28.30
2022-11-26T05:37:16.448Z,28.38
2022-11-26T05:39:43.286Z,25.27
2022-11-26T05:42:10.902Z,24.24
2022-11-26T05:44:38.449Z,25.08
2022-11-26T05:47:05.584Z,24.92
2022-11-26T05:49:32.325Z,25.15
2022-11-26T05:51:59.402Z,24.63
2022-11-26T05:54:27.044Z,25.37
2022-11-26T05:56:59.803Z,24.64
2022-11-26T05:59:27.450Z,25.22
2022-11-26T06:01:55.007Z,24.54
2022-11-26T06:04:21.808Z,25.43
2022-11-26T06:06:48.482Z,26.95
2022-11-26T06:09:15.311Z,24.50
2022-11-26T06:11:42.135Z,26.51
2022-11-26T06:14:10.985Z,24.41
2022-11-26T06:19:10.350Z,28.07
2022-11-26T06:21:37.227Z,26.36
2022-11-26T06:24:04.250Z,28.73
2022-11-26T06:26:31.356Z,26.90
2022-11-26T06:28:58.493Z,27.60
2022-11-26T06:31:25.346Z,25.41
2022-11-26T06:33:57.021Z,26.67
2022-11-26T06:36:25.297Z,26.33
2022-11-26T06:38:52.002Z,26.64
2022-11-26T06:41:18.709Z,26.30
2022-11-26T06:43:45.583Z,27.84
2022-11-26T06:46:12.617Z,24.06
2022-11-26T06:48:40.360Z,27.06
2022-11-26T06:51:10.545Z,26.69
2022-11-26T06:53:37.498Z,26.03
2022-11-26T06:56:07.017Z,26.77
2022-11-26T06:58:33.938Z,24.80
2022-11-26T07:01:00.991Z,24.64
2022-11-26T07:03:33.144Z,26.34
2022-11-26T07:06:00.573Z,24.04
2022-11-26T07:08:27.278Z,23.48
2022-11-26T07:10:54.278Z,23.63
2022-11-26T07:13:20.997Z,25.53
2022-11-26T07:15:47.784Z,25.11
2022-11-26T07:18:14.599Z,28.59
2022-11-26T07:20:41.901Z,25.21
2022-11-26T07:23:08.607Z,25.79
2022-11-26T07:25:36.772Z,27.68
2022-11-26T07:28:03.651Z,25.01
2022-11-26T07:30:30.751Z,24.90
2022-11-26T07:32:57.488Z,23.88
2022-11-26T07:35:24.560Z,24.97
2022-11-26T07:37:51.453Z,26.49
2022-11-26T07:40:18.459Z,24.94
2022-11-26T07:42:50.389Z,26.00
2022-11-26T07:45:24.141Z,27.07
2022-11-26T07:47:50.843Z,25.49
2022-11-26T07:50:17.594Z,23.39
2022-11-26T07:52:44.520Z,23.19
2022-11-26T07:55:12.780Z,26.83
2022-11-26T07:57:39.789Z,24.12
2022-11-26T08:00:07.239Z,22.81
2022-11-26T08:02:38.645Z,25.11
2022-11-26T08:05:05.940Z,24.81
2022-11-26T08:07:32.710Z,23.01
2022-11-26T08:09:59.795Z,22.57
2022-11-26T08:12:27.241Z,22.55
2022-11-26T08:14:53.983Z,24.44
2022-11-26T08:17:20.783Z,25.76
2022-11-26T08:19:47.740Z,23.47
2022-11-26T08:22:14.735Z,25.56
2022-11-26T08:24:41.533Z,23.80
2022-11-26T08:27:08.309Z,25.71
2022-11-26T08:29:37.141Z,25.41
2022-11-26T08:32:04.310Z,23.49
2022-11-26T08:34:31.530Z,24.80
2022-11-26T08:36:58.393Z,25.94
2022-11-26T08:39:25.390Z,27.09
2022-11-26T08:41:53.263Z,26.90
2022-11-26T08:44:21.197Z,24.85
2022-11-26T08:46:48.603Z,25.08
2022-11-26T08:49:17.032Z,29.94
2022-11-26T08:51:44.652Z,25.93
2022-11-26T08:54:12.860Z,25.95
2022-11-26T08:56:39.823Z,26.28
2022-11-26T08:59:06.603Z,24.29
2022-11-26T09:01:34.179Z,27.09
2022-11-26T09:04:03.207Z,24.28
2022-11-26T09:06:31.862Z,25.79
2022-11-26T09:09:12.933Z,24.57
2022-11-26T09:11:58.084Z,24.88
2022-11-26T09:14:28.305Z,24.45
2022-11-26T09:16:57.017Z,26.82
2022-11-26T09:19:25.115Z,25.23
2022-11-26T09:21:52.043Z,26.69
2022-11-26T09:24:18.891Z,24.82
2022-11-26T09:26:46.054Z,25.79
2022-11-26T09:29:14.849Z,27.07
2022-11-26T09:32:07.534Z,28.30
2022-11-26T09:34:31.995Z,25.32
2022-11-26T09:36:58.893Z,24.92
2022-11-26T09:39:27.275Z,26.87
2022-11-26T09:42:03.890Z,29.31
2022-11-26T09:44:43.424Z,26.07
2022-11-26T09:47:13.675Z,26.32
2022-11-26T09:49:48.189Z,25.63
2022-11-26T09:52:18.637Z,24.66
2022-11-26T09:54:48.200Z,25.57
2022-11-26T09:57:21.137Z,23.66
2022-11-26T09:59:50.557Z,27.18
2022-11-26T10:02:17.509Z,24.36
2022-11-26T10:04:44.773Z,23.91
2022-11-26T10:07:35.817Z,24.39
2022-11-26T10:10:13.831Z,25.31
2022-11-26T10:13:19.799Z,25.21
2022-11-26T10:16:15.030Z,26.07
2022-11-26T10:19:14.877Z,23.00
2022-11-26T10:21:58.721Z,23.99
2022-11-26T10:24:44.242Z,24.69
2022-11-26T10:27:15.998Z,26.67
2022-11-26T10:29:48.881Z,28.34
2022-11-26T10:32:20.935Z,26.28
2022-11-26T10:34:53.837Z,27.57
2022-11-26T10:37:22.601Z,24.95
2022-11-26T10:39:59.936Z,24.28
2022-11-26T10:42:42.035Z,23.76
2022-11-26T10:45:22.502Z,25.73
2022-11-26T10:47:49.418Z,26.50
2022-11-26T10:50:46.754Z,24.24
2022-11-26T10:53:24.411Z,23.99
2022-11-26T10:55:53.853Z,22.44
2022-11-26T10:58:24.506Z,24.12
2022-11-26T11:00:51.267Z,23.97
2022-11-26T11:03:44.483Z,23.79
2022-11-26T11:06:26.509Z,27.68
2022-11-26T11:08:54.648Z,25.94
2022-11-26T11:11:31.401Z,24.97
2022-11-26T11:13:59.346Z,23.91
2022-11-26T11:16:28.269Z,24.24
2022-11-26T11:19:03.169Z,23.56
2022-11-26T11:21:35.310Z,24.39
2022-11-26T11:24:18.260Z,24.25
2022-11-26T11:26:47.908Z,26.18
2022-11-26T11:29:30.033Z,24.36
2022-11-26T11:31:58.584Z,25.75
2022-11-26T11:34:39.985Z,23.85
2022-11-26T11:37:15.787Z,22.01
2022-11-26T11:39:43.723Z,22.14
2022-11-26T11:42:40.573Z,21.78
2022-11-26T11:45:22.066Z,21.32
2022-11-26T11:47:53.029Z,21.83
2022-11-26T11:50:30.592Z,25.80
2022-11-26T11:53:24.772Z,22.26
2022-11-26T11:56:19.297Z,23.01
2022-11-26T11:59:21.696Z,22.89
2022-11-26T12:01:48.429Z,23.48
2022-11-26T12:04:31.793Z,22.13
2022-11-26T12:07:19.108Z,23.34
2022-11-26T12:10:18.230Z,22.83
2022-11-26T12:12:56.525Z,23.70
2022-11-26T12:15:34.187Z,23.70
2022-11-26T12:18:26.425Z,24.03
2022-11-26T12:21:04.378Z,24.54
2022-11-26T12:23:55.298Z,26.03
2022-11-26T12:26:33.481Z,25.71
2022-11-26T12:29:07.077Z,25.61
2022-11-26T12:31:44.576Z,25.17
2022-11-26T12:34:30.000Z,26.77
2022-11-26T12:37:07.066Z,23.52
2022-11-26T12:39:45.313Z,24.51
2022-11-26T12:42:44.843Z,24.30
2022-11-26T12:45:27.361Z,23.18
2022-11-26T12:48:00.324Z,24.12
2022-11-26T12:50:41.980Z,23.17
2022-11-26T12:53:25.357Z,22.99
2022-11-26T12:56:18.574Z,23.18
2022-11-26T12:59:07.018Z,23.76
2022-11-26T13:01:34.013Z,22.14
2022-11-26T13:04:36.039Z,23.44
2022-11-26T13:07:16.833Z,23.28
2022-11-26T13:10:03.772Z,22.79
2022-11-26T13:12:49.129Z,23.57
2022-11-26T13:15:33.738Z,22.37
2022-11-26T13:18:02.718Z,24.84
2022-11-26T13:20:55.726Z,22.77
2022-11-26T13:23:52.421Z,23.24
2022-11-26T13:26:28.045Z,22.77
2022-11-26T13:29:28.324Z,22.75
2022-11-26T13:32:18.112Z,22.53
2022-11-26T13:35:00.634Z,24.08
2022-11-26T13:38:04.005Z,23.23
2022-11-26T13:40:45.791Z,23.75
2022-11-26T13:43:35.054Z,25.38
2022-11-26T13:46:07.589Z,23.94
2022-11-26T13:48:38.146Z,23.99
2022-11-26T13:51:16.958Z,24.09
2022-11-26T13:53:50.626Z,25.03
2022-11-26T13:56:23.762Z,23.67
2022-11-26T13:59:01.343Z,26.76
2022-11-26T14:01:37.264Z,26.65
2022-11-26T14:04:27.399Z,23.58
2022-11-26T14:07:06.032Z,23.09
2022-11-26T14:09:46.529Z,22.68
2022-11-26T14:12:14.941Z,23.22
2022-11-26T14:14:42.952Z,22.79
2022-11-26T14:17:12.817Z,22.37
2022-11-26T14:19:39.468Z,23.59
2022-11-26T14:22:07.284Z,24.06
2022-11-26T14:25:06.673Z,23.80
2022-11-26T14:27:46.620Z,22.24
2022-11-26T14:30:19.107Z,24.05
2022-11-26T14:33:05.405Z,23.21
2022-11-26T14:35:35.455Z,25.55
2022-11-26T14:38:05.283Z,22.98
2022-11-26T14:40:37.663Z,27.00
2022-11-26T14:43:19.788Z,23.94
2022-11-26T14:46:12.506Z,25.15
2022-11-26T14:48:50.528Z,24.76
2022-11-26T14:51:23.701Z,25.29
2022-11-26T14:53:51.763Z,24.83
2022-11-26T14:56:21.303Z,26.28
2022-11-26T14:59:14.344Z,26.77
2022-11-26T15:01:45.366Z,27.98
2022-11-26T15:04:26.168Z,24.96
2022-11-26T15:06:52.973Z,23.81
2022-11-26T15:09:24.412Z,23.68
2022-11-26T15:12:11.416Z,23.58
2022-11-26T15:14:52.950Z,24.47
2022-11-26T15:17:22.728Z,25.06
2022-11-26T15:19:52.734Z,26.77
2022-11-26T15:22:35.615Z,23.81
2022-11-26T15:25:02.859Z,22.78
2022-11-26T15:27:53.093Z,23.72
2022-11-26T15:30:25.468Z,23.86
2022-11-26T15:32:58.315Z,25.51
2022-11-26T15:35:25.345Z,22.80
2022-11-26T15:37:52.148Z,21.00
2022-11-26T15:40:23.982Z,21.58
2022-11-26T15:42:57.939Z,23.70
2022-11-26T15:45:37.716Z,22.31
2022-11-26T15:48:05.998Z,21.55
2022-11-26T15:50:36.315Z,22.82
2022-11-26T15:53:17.048Z,21.75
2022-11-26T15:55:48.231Z,23.89
2022-11-26T15:58:39.625Z,22.07
2022-11-26T16:01:17.086Z,22.08
2022-11-26T16:03:47.297Z,23.18
2022-11-26T16:06:33.291Z,25.02
2022-11-26T16:09:02.764Z,23.64
2022-11-26T16:11:34.217Z,22.22
2022-11-26T16:14:22.674Z,21.85
2022-11-26T16:16:51.522Z,22.17
2022-11-26T16:19:22.504Z,21.83
2022-11-26T16:21:51.491Z,21.92
2022-11-26T16:24:36.259Z,24.65
2022-11-26T16:27:06.524Z,27.18
2022-11-26T16:29:36.179Z,24.57
2022-11-26T16:32:03.597Z,25.00
2022-11-26T16:34:30.831Z,26.05
2022-11-26T16:37:32.889Z,24.72
2022-11-26T16:40:02.395Z,25.36
2022-11-26T16:42:32.246Z,26.03
2022-11-26T16:45:03.959Z,28.34
2022-11-26T16:47:41.234Z,23.31
2022-11-26T16:50:26.178Z,24.12
2022-11-26T16:52:54.778Z,26.64
2022-11-26T16:55:25.549Z,24.62
2022-11-26T16:57:58.173Z,23.88
2022-11-26T17:00:26.251Z,24.34
2022-11-26T17:02:53.557Z,26.41
2022-11-26T17:05:21.542Z,26.18
2022-11-26T17:07:48.225Z,26.58
2022-11-26T17:10:21.402Z,23.97
2022-11-26T17:12:50.016Z,23.93
2022-11-26T17:15:18.428Z,23.80
2022-11-26T17:17:45.752Z,22.03
2022-11-26T17:20:20.053Z,22.59
2022-11-26T17:22:48.222Z,22.44
2022-11-26T17:25:16.012Z,21.71
2022-11-26T17:27:43.558Z,22.12
2022-11-26T17:30:28.382Z,21.94
2022-11-26T17:32:55.215Z,21.90
2022-11-26T17:35:22.022Z,21.98
2022-11-26T17:37:48.849Z,21.98
2022-11-26T17:40:19.293Z,21.89
2022-11-26T17:42:46.995Z,21.57
2022-11-26T17:45:14.580Z,21.81
2022-11-26T17:47:41.609Z,21.86
2022-11-26T17:50:21.789Z,21.95
2022-11-26T17:52:49.824Z,21.45
2022-11-26T17:55:18.837Z,21.41
2022-11-26T17:57:45.844Z,21.67
2022-11-26T18:00:15.970Z,21.95
2022-11-26T18:02:43.918Z,21.97
2022-11-26T18:05:11.286Z,21.73
2022-11-26T18:07:38.624Z,21.43
2022-11-26T18:10:08.109Z,21.63
2022-11-26T18:12:34.873Z,21.47
2022-11-26T18:15:02.257Z,21.10
2022-11-26T18:17:28.958Z,21.04
2022-11-26T18:19:56.696Z,21.54
2022-11-26T18:22:25.831Z,21.32
2022-11-26T18:24:57.297Z,20.79
2022-11-26T18:27:28.181Z,21.60
2022-11-26T18:29:54.971Z,23.77
2022-11-26T18:32:22.404Z,24.02
2022-11-26T18:34:51.011Z,22.62
2022-11-26T18:37:18.920Z,21.41
2022-11-26T18:39:45.621Z,21.19
2022-11-26T18:42:35.980Z,21.55
2022-11-26T18:45:00.139Z,21.57
2022-11-26T18:47:26.884Z,21.18
2022-11-26T18:49:53.622Z,22.03
2022-11-26T18:52:20.317Z,22.97
2022-11-26T18:54:47.833Z,22.14
2022-11-26T18:57:14.624Z,21.79
2022-11-26T18:59:41.558Z,21.11
2022-11-26T19:02:10.359Z,21.41
2022-11-26T19:04:39.002Z,21.47
2022-11-26T19:07:06.683Z,21.32
2022-11-26T19:09:34.043Z,21.17
2022-11-26T19:12:01.081Z,21.48
2022-11-26T19:14:27.780Z,21.47
2022-11-26T19:16:54.548Z,21.92
2022-11-26T19:19:21.718Z,21.84
2022-11-26T19:21:50.479Z,22.02
2022-11-26T19:24:17.920Z,22.16
2022-11-26T19:26:44.732Z,24.66
2022-11-26T19:29:12.857Z,23.64
2022-11-26T19:31:40.125Z,24.85
2022-11-26T19:34:11.677Z,25.18
2022-11-26T19:36:38.637Z,25.75
2022-11-26T19:39:06.757Z,24.07
2022-11-26T19:41:34.564Z,25.60
2022-11-26T19:44:04.241Z,24.38
2022-11-26T19:46:31.568Z,27.62
2022-11-26T19:48:58.307Z,25.64
2022-11-26T19:51:26.909Z,26.14
2022-11-26T19:53:55.765Z,22.77
2022-11-26T19:56:26.501Z,24.50
2022-11-26T19:58:54.236Z,25.33
2022-11-26T20:01:22.149Z,25.13
2022-11-26T20:03:50.575Z,22.50
2022-11-26T20:06:23.221Z,21.76
2022-11-26T20:08:50.317Z,21.33
2022-11-26T20:11:19.072Z,22.73
2022-11-26T20:13:48.359Z,22.01
2022-11-26T20:16:25.015Z,23.05
2022-11-26T20:18:52.164Z,23.86
2022-11-26T20:21:25.776Z,23.83
2022-11-26T20:23:54.287Z,22.39
2022-11-26T20:26:29.216Z,21.47
2022-11-26T20:28:59.536Z,21.37
2022-11-26T20:31:26.824Z,21.52
2022-11-26T20:33:54.378Z,22.56
2022-11-26T20:36:23.430Z,22.85
2022-11-26T20:38:58.912Z,21.70
2022-11-26T20:41:26.508Z,22.50
2022-11-26T20:43:59.073Z,22.38
2022-11-26T20:46:28.536Z,21.75
2022-11-26T20:48:56.484Z,22.99
2022-11-26T20:51:24.765Z,22.44
2022-11-26T20:53:53.569Z,21.62
2022-11-26T20:56:22.576Z,21.96
2022-11-26T20:58:51.197Z,21.19
2022-11-26T21:01:28.400Z,23.69
2022-11-26T21:03:56.294Z,22.39
2022-11-26T21:06:30.404Z,21.53
2022-11-26T21:09:00.204Z,21.17
2022-11-26T21:11:27.345Z,22.02
2022-11-26T21:13:54.252Z,22.29
2022-11-26T21:16:21.265Z,23.21
2022-11-26T21:18:48.066Z,23.53
2022-11-26T21:21:17.093Z,23.17
2022-11-26T21:23:45.166Z,22.92
2022-11-26T21:26:20.671Z,23.98
2022-11-26T21:29:05.476Z,23.22
2022-11-26T21:31:32.597Z,22.37
2022-11-26T21:34:01.489Z,21.61
2022-11-26T21:36:29.967Z,21.37
2022-11-26T21:38:56.964Z,21.66
2022-11-26T21:41:24.717Z,21.53
2022-11-26T21:43:51.820Z,21.25
2022-11-26T21:46:27.765Z,22.41
2022-11-26T21:48:56.067Z,21.45
2022-11-26T21:51:25.250Z,21.71
2022-11-26T21:53:54.279Z,21.82
2022-11-26T21:56:24.613Z,22.39
2022-11-26T21:58:51.888Z,24.18
2022-11-26T22:01:23.030Z,22.51
2022-11-26T22:03:53.120Z,22.02
2022-11-26T22:06:21.430Z,21.52
2022-11-26T22:08:48.884Z,21.35
2022-11-26T22:11:28.163Z,21.22
2022-11-26T22:13:55.244Z,21.31
2022-11-26T22:16:24.385Z,22.49
2022-11-26T22:18:53.123Z,22.58
2022-11-26T22:21:24.085Z,21.73
2022-11-26T22:23:52.078Z,22.06
2022-11-26T22:26:20.656Z,23.31
2022-11-26T22:28:49.738Z,24.60
2022-11-26T22:31:28.208Z,23.50
2022-11-26T22:34:01.390Z,23.34
2022-11-26T22:36:28.612Z,22.29
2022-11-26T22:38:55.603Z,23.73
2022-11-26T22:41:23.356Z,24.74
2022-11-26T22:43:51.192Z,22.55
2022-11-26T22:46:20.996Z,24.32
2022-11-26T22:48:53.426Z,25.31
2022-11-26T22:51:22.116Z,23.89
2022-11-26T22:53:53.646Z,24.02
2022-11-26T22:56:21.991Z,24.32
2022-11-26T22:58:50.133Z,25.56
2022-11-26T23:01:22.350Z,24.81
2022-11-26T23:03:51.380Z,23.63
2022-11-26T23:06:20.086Z,23.38
2022-11-26T23:08:47.426Z,23.55
2022-11-26T23:11:26.591Z,23.00
2022-11-26T23:13:54.677Z,26.43
2022-11-26T23:16:25.305Z,24.11
2022-11-26T23:18:54.705Z,24.53
2022-11-26T23:21:26.786Z,24.05
2022-11-26T23:23:53.851Z,21.70
2022-11-26T23:26:27.570Z,23.25
2022-11-26T23:28:56.716Z,23.58
2022-11-26T23:31:26.792Z,25.40
2022-11-26T23:33:53.947Z,26.11
2022-11-26T23:36:21.993Z,23.44
2022-11-26T23:38:48.850Z,22.49
2022-11-26T23:41:15.782Z,25.54
2022-11-26T23:43:43.012Z,21.95
2022-11-26T23:46:14.190Z,21.71
2022-11-26T23:48:41.364Z,21.78
2022-11-26T23:51:10.815Z,22.70
2022-11-26T23:53:39.009Z,22.84
2022-11-26T23:56:08.992Z,23.69
2022-11-26T23:58:35.998Z,24.32
